createdAt,value
2022-08-11T00:02:02.208Z,25.40
2022-08-11T00:04:37.844Z,25.30
2022-08-11T00:07:07.715Z,25.30
2022-08-11T00:09:40.196Z,25.00
2022-08-11T00:12:16.624Z,24.70
2022-08-11T00:14:46.602Z,24.60
2022-08-11T00:17:16.956Z,24.70
2022-08-11T00:20:11.857Z,24.80
2022-08-11T00:22:42.559Z,24.70
2022-08-11T00:25:18.951Z,24.70
2022-08-11T00:27:49.040Z,24.50
2022-08-11T00:30:18.141Z,24.40
2022-08-11T00:32:55.940Z,24.40
2022-08-11T00:35:52.470Z,24.20
2022-08-11T00:38:19.781Z,24.30
2022-08-11T00:41:10.564Z,24.30
2022-08-11T00:44:00.584Z,24.50
2022-08-11T00:46:36.420Z,24.40
2022-08-11T00:49:17.030Z,24.30
2022-08-11T00:52:15.470Z,24.40
2022-08-11T00:55:19.308Z,24.40
2022-08-11T00:58:12.078Z,24.40
2022-08-11T01:01:11.316Z,24.40
2022-08-11T01:04:01.614Z,24.50
2022-08-11T01:06:35.867Z,24.70
2022-08-11T01:09:32.382Z,24.60
2022-08-11T01:12:31.782Z,24.50
2022-08-11T01:15:21.839Z,24.40
2022-08-11T01:18:09.234Z,24.50
2022-08-11T01:21:00.030Z,24.60
2022-08-11T01:23:43.688Z,24.60
2022-08-11T01:26:48.131Z,24.30
2022-08-11T01:29:50.003Z,24.20
2022-08-11T01:32:56.114Z,24.10
2022-08-11T01:35:56.548Z,23.70
2022-08-11T01:38:27.915Z,23.90
2022-08-11T01:41:50.078Z,23.90
2022-08-11T01:44:39.827Z,23.80
2022-08-11T01:47:08.235Z,24.10
2022-08-11T01:50:10.042Z,24.20
2022-08-11T01:52:56.318Z,24.30
2022-08-11T01:55:55.928Z,24.60
2022-08-11T01:58:45.827Z,24.60
2022-08-11T02:01:46.720Z,24.50
2022-08-11T02:04:26.168Z,24.30
2022-08-11T02:07:31.820Z,24.30
2022-08-11T02:10:03.052Z,24.40
2022-08-11T02:12:56.183Z,24.50
2022-08-11T02:15:37.464Z,24.30
2022-08-11T02:19:08.919Z,24.00
2022-08-11T02:22:15.144Z,24.10
2022-08-11T02:25:08.677Z,23.60
2022-08-11T02:27:57.005Z,23.20
2022-08-11T02:30:28.632Z,23.10
2022-08-11T02:33:36.894Z,22.90
2022-08-11T02:36:09.409Z,22.70
2022-08-11T02:39:11.634Z,22.60
2022-08-11T02:42:04.523Z,22.60
2022-08-11T02:44:57.298Z,22.50
2022-08-11T02:47:40.837Z,22.50
2022-08-11T02:50:24.957Z,22.50
2022-08-11T02:53:12.721Z,22.60
2022-08-11T02:56:15.589Z,22.60
2022-08-11T02:59:31.500Z,22.40
2022-08-11T03:02:32.751Z,22.10
2022-08-11T03:05:18.943Z,22.10
2022-08-11T03:08:08.701Z,22.00
2022-08-11T03:11:23.347Z,21.90
2022-08-11T03:14:31.599Z,21.80
2022-08-11T03:17:15.073Z,21.60
2022-08-11T03:20:01.795Z,21.40
2022-08-11T03:22:48.549Z,21.20
2022-08-11T03:25:21.711Z,21.00
2022-08-11T03:28:04.345Z,20.90
2022-08-11T03:31:05.108Z,20.80
2022-08-11T03:34:07.032Z,20.60
2022-08-11T03:37:15.107Z,20.50
2022-08-11T03:39:55.447Z,20.40
2022-08-11T03:43:16.032Z,20.40
2022-08-11T03:45:59.394Z,20.60
2022-08-11T03:48:41.423Z,20.60
2022-08-11T03:51:24.834Z,20.60
2022-08-11T03:54:23.346Z,20.50
2022-08-11T03:56:57.813Z,20.50
2022-08-11T03:59:35.700Z,20.50
2022-08-11T04:02:19.388Z,20.50
2022-08-11T04:05:53.181Z,20.50
2022-08-11T04:08:46.024Z,20.40
2022-08-11T04:11:32.739Z,20.40
2022-08-11T04:14:44.372Z,20.40
2022-08-11T04:17:30.849Z,20.40
2022-08-11T04:20:36.532Z,20.30
2022-08-11T04:24:37.181Z,20.30
2022-08-11T04:27:14.679Z,20.30
2022-08-11T04:30:03.518Z,20.20
2022-08-11T04:33:04.258Z,20.10
2022-08-11T04:35:54.229Z,20.10
2022-08-11T04:38:31.765Z,20.00
2022-08-11T04:41:58.656Z,19.80
2022-08-11T04:45:12.926Z,19.70
2022-08-11T04:48:04.649Z,19.70
2022-08-11T04:51:45.598Z,19.70
2022-08-11T04:55:09.243Z,19.70
2022-08-11T04:58:04.774Z,19.70
2022-08-11T05:01:05.715Z,19.60
2022-08-11T05:03:52.657Z,19.60
2022-08-11T05:07:08.672Z,19.60
2022-08-11T05:09:42.216Z,19.50
2022-08-11T05:12:51.612Z,19.40
2022-08-11T05:15:44.711Z,19.40
2022-08-11T05:18:39.267Z,19.40
2022-08-11T05:21:45.184Z,19.30
2022-08-11T05:24:41.026Z,19.30
2022-08-11T05:27:30.498Z,19.30
2022-08-11T05:30:25.077Z,19.30
2022-08-11T05:33:23.219Z,19.20
2022-08-11T05:36:03.459Z,19.20
2022-08-11T05:38:55.430Z,19.20
2022-08-11T05:41:45.004Z,19.10
2022-08-11T05:44:38.542Z,19.10
2022-08-11T05:47:27.310Z,19.10
2022-08-11T05:50:15.132Z,19.10
2022-08-11T05:53:09.133Z,19.10
2022-08-11T05:56:04.297Z,19.00
2022-08-11T05:58:42.944Z,18.80
2022-08-11T06:01:22.470Z,18.80
2022-08-11T06:04:12.633Z,18.70
2022-08-11T06:06:55.730Z,18.70
2022-08-11T06:09:33.897Z,18.70
2022-08-11T06:12:18.101Z,18.70
2022-08-11T06:14:50.187Z,18.60
2022-08-11T06:17:39.008Z,18.50
2022-08-11T06:20:13.779Z,18.40
2022-08-11T06:22:48.512Z,18.30
2022-08-11T06:25:20.409Z,18.20
2022-08-11T06:27:59.483Z,18.20
2022-08-11T06:30:49.747Z,18.20
2022-08-11T06:33:44.686Z,18.10
2022-08-11T06:36:32.607Z,18.00
2022-08-11T06:39:25.840Z,18.10
2022-08-11T06:42:01.843Z,18.00
2022-08-11T06:44:34.646Z,18.00
2022-08-11T06:47:10.541Z,18.00
2022-08-11T06:50:06.999Z,17.90
2022-08-11T06:52:40.857Z,17.90
2022-08-11T06:55:56.897Z,17.80
2022-08-11T06:58:24.367Z,17.80
2022-08-11T07:00:58.171Z,17.70
2022-08-11T07:03:29.874Z,17.70
2022-08-11T07:06:22.110Z,17.60
2022-08-11T07:09:29.818Z,17.60
2022-08-11T07:12:20.143Z,17.50
2022-08-11T07:15:15.304Z,17.40
2022-08-11T07:17:50.160Z,17.50
2022-08-11T07:20:38.128Z,17.50
2022-08-11T07:23:28.846Z,17.60
2022-08-11T07:26:18.932Z,17.60
2022-08-11T07:29:01.546Z,17.50
2022-08-11T07:31:47.794Z,17.50
2022-08-11T07:34:38.901Z,17.40
2022-08-11T07:37:18.595Z,17.30
2022-08-11T07:39:49.454Z,17.30
2022-08-11T07:42:22.896Z,17.30
2022-08-11T07:45:11.964Z,17.30
2022-08-11T07:48:00.387Z,17.30
2022-08-11T07:50:47.804Z,17.20
2022-08-11T07:53:17.603Z,17.20
2022-08-11T07:55:51.684Z,17.20
2022-08-11T07:58:45.749Z,17.10
2022-08-11T08:01:44.106Z,17.10
2022-08-11T08:04:42.119Z,17.10
2022-08-11T08:07:32.223Z,17.10
2022-08-11T08:10:20.519Z,17.10
2022-08-11T08:13:07.424Z,17.10
2022-08-11T08:15:54.378Z,17.10
2022-08-11T08:18:27.662Z,17.10
2022-08-11T08:21:12.613Z,17.10
2022-08-11T08:23:46.472Z,17.00
2022-08-11T08:26:35.511Z,16.90
2022-08-11T08:29:26.100Z,17.00
2022-08-11T08:31:57.423Z,16.90
2022-08-11T08:34:26.611Z,16.80
2022-08-11T08:36:55.659Z,16.80
2022-08-11T08:39:24.944Z,16.80
2022-08-11T08:42:00.456Z,16.80
2022-08-11T08:44:45.278Z,16.80
2022-08-11T08:47:41.597Z,16.80
2022-08-11T08:50:27.491Z,16.80
2022-08-11T08:53:02.790Z,16.80
2022-08-11T08:55:33.223Z,16.80
2022-08-11T08:58:03.375Z,16.70
2022-08-11T09:00:42.246Z,16.70
2022-08-11T09:03:39.165Z,16.70
2022-08-11T09:06:01.648Z,16.70
2022-08-11T09:08:33.792Z,16.70
2022-08-11T09:11:22.176Z,16.70
2022-08-11T09:14:05.086Z,16.70
2022-08-11T09:16:37.127Z,16.70
2022-08-11T09:19:06.283Z,16.60
2022-08-11T09:21:48.803Z,16.60
2022-08-11T09:24:38.489Z,16.60
2022-08-11T09:27:09.160Z,16.60
2022-08-11T09:29:39.950Z,16.50
2022-08-11T09:32:09.689Z,16.50
2022-08-11T09:34:39.993Z,16.50
2022-08-11T09:37:54.081Z,16.50
2022-08-11T09:40:30.081Z,16.40
2022-08-11T09:43:23.056Z,16.40
2022-08-11T09:45:55.028Z,16.40
2022-08-11T09:48:26.309Z,16.40
2022-08-11T09:51:00.982Z,16.40
2022-08-11T09:53:40.781Z,16.30
2022-08-11T09:56:41.278Z,16.20
2022-08-11T09:59:10.436Z,16.20
2022-08-11T10:01:59.991Z,16.20
2022-08-11T10:04:35.655Z,16.20
2022-08-11T10:07:07.767Z,16.20
2022-08-11T10:09:50.224Z,16.20
2022-08-11T10:12:43.295Z,16.20
2022-08-11T10:15:31.571Z,16.20
2022-08-11T10:18:27.626Z,16.20
2022-08-11T10:21:23.444Z,16.20
2022-08-11T10:24:13.116Z,16.20
2022-08-11T10:26:56.312Z,16.10
2022-08-11T10:30:09.368Z,16.00
2022-08-11T10:32:59.273Z,16.10
2022-08-11T10:35:33.425Z,16.10
2022-08-11T10:38:07.413Z,16.00
2022-08-11T10:40:46.014Z,16.00
2022-08-11T10:43:18.811Z,16.00
2022-08-11T10:46:27.588Z,15.90
2022-08-11T10:49:00.048Z,15.90
2022-08-11T10:51:50.111Z,15.90
2022-08-11T10:54:40.411Z,15.90
2022-08-11T10:57:27.979Z,15.90
2022-08-11T10:59:58.119Z,15.70
2022-08-11T11:02:28.191Z,15.80
2022-08-11T11:05:22.577Z,15.70
2022-08-11T11:07:57.257Z,15.60
2022-08-11T11:10:25.712Z,15.60
2022-08-11T11:13:16.420Z,15.60
2022-08-11T11:16:07.058Z,15.60
2022-08-11T11:18:39.147Z,15.50
2022-08-11T11:21:15.351Z,15.50
2022-08-11T11:24:05.824Z,15.50
2022-08-11T11:27:04.859Z,15.50
2022-08-11T11:29:57.797Z,15.50
2022-08-11T11:32:32.575Z,15.40
2022-08-11T11:35:32.154Z,15.40
2022-08-11T11:38:04.800Z,15.40
2022-08-11T11:40:35.287Z,15.40
2022-08-11T11:43:04.791Z,15.40
2022-08-11T11:45:33.603Z,15.40
2022-08-11T11:48:03.123Z,15.40
2022-08-11T11:50:40.685Z,15.40
2022-08-11T11:53:11.559Z,15.40
2022-08-11T11:55:40.552Z,15.40
2022-08-11T11:58:27.789Z,15.30
2022-08-11T12:01:16.228Z,15.30
2022-08-11T12:03:51.160Z,15.30
2022-08-11T12:06:23.997Z,15.30
2022-08-11T12:08:56.467Z,15.20
2022-08-11T12:11:44.975Z,15.10
2022-08-11T12:14:16.580Z,15.20
2022-08-11T12:16:46.796Z,15.10
2022-08-11T12:19:18.839Z,15.20
2022-08-11T12:22:06.442Z,15.20
2022-08-11T12:24:56.378Z,15.30
2022-08-11T12:27:27.853Z,15.30
2022-08-11T12:30:01.815Z,15.30
2022-08-11T12:32:33.862Z,15.30
2022-08-11T12:35:03.106Z,15.30
2022-08-11T12:37:42.226Z,15.30
2022-08-11T12:40:42.471Z,15.30
2022-08-11T12:43:56.477Z,15.20
2022-08-11T12:46:32.650Z,15.20
2022-08-11T12:49:21.334Z,15.20
2022-08-11T12:52:14.555Z,15.20
2022-08-11T12:54:52.840Z,15.10
2022-08-11T12:57:58.528Z,15.00
2022-08-11T13:00:46.336Z,15.00
2022-08-11T13:03:33.898Z,15.00
2022-08-11T13:06:06.729Z,15.00
2022-08-11T13:08:37.953Z,14.90
2022-08-11T13:11:56.154Z,14.90
2022-08-11T13:14:15.491Z,15.00
2022-08-11T13:17:04.734Z,15.00
2022-08-11T13:19:35.366Z,15.00
2022-08-11T13:22:06.142Z,15.10
2022-08-11T13:24:35.344Z,15.10
2022-08-11T13:27:04.558Z,15.20
2022-08-11T13:29:33.476Z,15.30
2022-08-11T13:32:02.093Z,15.40
2022-08-11T13:34:36.052Z,15.30
2022-08-11T13:37:06.085Z,15.30
2022-08-11T13:39:37.058Z,15.20
2022-08-11T13:42:06.727Z,15.30
2022-08-11T13:44:40.127Z,15.30
2022-08-11T13:47:10.660Z,15.40
2022-08-11T13:49:41.831Z,15.50
2022-08-11T13:52:17.766Z,15.60
2022-08-11T13:54:49.165Z,15.70
2022-08-11T13:58:08.621Z,15.80
2022-08-11T14:00:20.905Z,15.90
2022-08-11T14:02:58.259Z,16.00
2022-08-11T14:05:40.530Z,16.00
2022-08-11T14:08:31.737Z,16.10
2022-08-11T14:12:21.030Z,16.20
2022-08-11T14:14:22.356Z,16.40
2022-08-11T14:16:55.048Z,16.50
2022-08-11T14:19:27.075Z,16.60
2022-08-11T14:22:08.882Z,16.70
2022-08-11T14:24:52.455Z,16.80
2022-08-11T14:28:32.020Z,16.80
2022-08-11T14:30:35.545Z,16.90
2022-08-11T14:33:16.505Z,17.00
2022-08-11T14:35:45.316Z,17.10
2022-08-11T14:38:20.603Z,17.30
2022-08-11T14:41:08.428Z,17.30
2022-08-11T14:44:14.028Z,17.40
2022-08-11T14:47:02.633Z,17.60
2022-08-11T14:49:31.967Z,17.80
2022-08-11T14:52:00.749Z,18.00
2022-08-11T14:54:52.217Z,18.20
2022-08-11T14:57:55.231Z,18.10
2022-08-11T15:00:16.286Z,18.20
2022-08-11T15:03:05.310Z,18.30
2022-08-11T15:05:34.471Z,18.20
2022-08-11T15:08:03.244Z,18.40
2022-08-11T15:10:32.391Z,18.60
2022-08-11T15:13:01.899Z,18.70
2022-08-11T15:15:50.721Z,18.90
2022-08-11T15:18:21.510Z,19.10
2022-08-11T15:21:08.511Z,19.50
2022-08-11T15:23:55.862Z,20.10
2022-08-11T15:27:00.874Z,21.70
2022-08-11T15:29:51.966Z,22.70
2022-08-11T15:32:22.929Z,23.70
2022-08-11T15:35:21.327Z,25.20
2022-08-11T15:37:56.612Z,26.60
2022-08-11T15:40:47.172Z,27.90
2022-08-11T15:43:40.518Z,27.40
2022-08-11T15:46:17.568Z,27.40
2022-08-11T15:49:26.448Z,29.80
2022-08-11T15:52:24.400Z,29.30
2022-08-11T15:54:53.665Z,31.60
2022-08-11T15:57:41.716Z,32.60
2022-08-11T16:00:30.363Z,32.40
2022-08-11T16:03:19.196Z,31.70
2022-08-11T16:05:53.013Z,31.70
2022-08-11T16:08:32.678Z,30.60
2022-08-11T16:11:04.042Z,30.20
2022-08-11T16:13:42.605Z,30.00
2022-08-11T16:16:17.887Z,30.20
2022-08-11T16:18:54.796Z,30.80
2022-08-11T16:21:34.842Z,30.90
2022-08-11T16:27:04.603Z,30.40
2022-08-11T16:27:13.734Z,31.10
2022-08-11T16:29:46.650Z,32.10
2022-08-11T16:32:22.827Z,32.60
2022-08-11T16:35:18.005Z,33.70
2022-08-11T16:38:05.445Z,34.10
2022-08-11T16:40:35.648Z,34.90
2022-08-11T16:43:27.183Z,34.40
2022-08-11T16:46:14.994Z,34.70
2022-08-11T16:48:46.773Z,36.60
2022-08-11T16:51:16.090Z,37.30
2022-08-11T16:54:04.511Z,35.20
2022-08-11T16:56:45.809Z,35.40
2022-08-11T16:59:33.315Z,35.20
2022-08-11T17:02:07.951Z,35.50
2022-08-11T17:05:00.652Z,34.20
2022-08-11T17:07:49.435Z,34.00
2022-08-11T17:10:56.444Z,33.30
2022-08-11T17:13:48.498Z,32.30
2022-08-11T17:16:23.654Z,30.70
2022-08-11T17:18:59.479Z,30.50
2022-08-11T17:21:31.824Z,29.20
2022-08-11T17:24:15.112Z,28.60
2022-08-11T17:26:58.968Z,27.40
2022-08-11T17:29:53.624Z,27.60
2022-08-11T17:33:00.557Z,27.10
2022-08-11T17:35:41.427Z,26.70
2022-08-11T17:38:13.344Z,26.20
2022-08-11T17:41:06.813Z,25.70
2022-08-11T17:43:54.235Z,24.50
2022-08-11T17:46:41.648Z,24.30
2022-08-11T17:49:12.642Z,24.70
2022-08-11T17:52:02.472Z,24.20
2022-08-11T17:54:51.444Z,23.80
2022-08-11T17:57:38.901Z,23.30
2022-08-11T18:00:09.369Z,23.50
2022-08-11T18:03:02.089Z,23.50
2022-08-11T18:05:32.876Z,23.50
2022-08-11T18:08:25.998Z,23.90
2022-08-11T18:11:17.224Z,24.10
2022-08-11T18:14:11.987Z,24.00
2022-08-11T18:17:12.059Z,23.90
2022-08-11T18:19:58.852Z,23.70
2022-08-11T18:22:52.759Z,23.60
2022-08-11T18:25:54.694Z,23.80
2022-08-11T18:28:45.544Z,23.80
2022-08-11T18:31:35.559Z,23.60
2022-08-11T18:34:25.975Z,23.80
2022-08-11T18:37:29.017Z,24.00
2022-08-11T18:40:27.763Z,24.10
2022-08-11T18:43:22.720Z,24.10
2022-08-11T18:46:17.044Z,24.30
2022-08-11T18:49:14.531Z,24.20
2022-08-11T18:52:09.728Z,24.70
2022-08-11T18:54:59.191Z,25.40
2022-08-11T18:57:49.479Z,26.60
2022-08-11T19:00:43.365Z,27.40
2022-08-11T19:03:32.209Z,29.20
2022-08-11T19:06:39.853Z,29.60
2022-08-11T19:09:31.439Z,29.80
2022-08-11T19:12:19.783Z,30.90
2022-08-11T19:15:09.047Z,31.80
2022-08-11T19:17:59.767Z,31.40
2022-08-11T19:20:50.458Z,30.60
2022-08-11T19:23:43.724Z,30.40
2022-08-11T19:26:31.165Z,30.50
2022-08-11T19:30:07.398Z,31.10
2022-08-11T19:32:26.782Z,32.50
2022-08-11T19:35:15.576Z,33.00
2022-08-11T19:38:05.427Z,33.40
2022-08-11T19:40:52.783Z,31.60
2022-08-11T19:43:41.086Z,30.70
2022-08-11T19:46:29.460Z,30.20
2022-08-11T19:49:18.177Z,29.50
2022-08-11T19:52:05.456Z,30.40
2022-08-11T19:54:54.181Z,30.50
2022-08-11T19:57:42.502Z,30.20
2022-08-11T20:00:36.616Z,29.70
2022-08-11T20:03:33.499Z,29.20
2022-08-11T20:06:26.572Z,28.70
2022-08-11T20:09:19.303Z,28.70
2022-08-11T20:12:09.235Z,28.10
2022-08-11T20:15:00.378Z,28.00
2022-08-11T20:17:51.776Z,27.90
2022-08-11T20:20:41.268Z,27.70
2022-08-11T20:23:31.742Z,27.60
2022-08-11T20:26:30.950Z,27.40
2022-08-11T20:29:20.819Z,27.70
2022-08-11T20:32:09.379Z,27.50
2022-08-11T20:34:59.253Z,27.30
2022-08-11T20:37:51.087Z,27.10
2022-08-11T20:40:42.067Z,27.10
2022-08-11T20:44:05.765Z,27.30
2022-08-11T20:46:41.683Z,27.50
2022-08-11T20:49:40.955Z,27.30
2022-08-11T20:52:39.608Z,27.50
2022-08-11T20:55:51.320Z,27.60
2022-08-11T20:59:02.704Z,27.30
2022-08-11T21:01:45.433Z,27.10
2022-08-11T21:04:33.285Z,27.30
2022-08-11T21:07:28.571Z,27.50
2022-08-11T21:10:22.877Z,27.30
2022-08-11T21:13:24.036Z,27.50
2022-08-11T21:16:25.725Z,27.50
2022-08-11T21:20:00.062Z,27.40
2022-08-11T21:22:38.376Z,27.20
2022-08-11T21:25:33.073Z,27.20
2022-08-11T21:28:23.708Z,27.40
2022-08-11T21:31:11.280Z,27.30
2022-08-11T21:33:59.524Z,27.20
2022-08-11T21:36:48.357Z,27.20
2022-08-11T21:39:39.249Z,27.30
2022-08-11T21:42:26.986Z,27.30
2022-08-11T21:45:15.667Z,27.30
2022-08-11T21:48:03.685Z,27.40
2022-08-11T21:50:50.344Z,27.50
2022-08-11T21:53:38.904Z,27.40
2022-08-11T21:56:27.592Z,27.60
2022-08-11T21:59:17.590Z,27.80
2022-08-11T22:02:09.112Z,27.70
2022-08-11T22:04:59.578Z,27.50
2022-08-11T22:07:47.393Z,27.50
2022-08-11T22:10:41.797Z,27.70
2022-08-11T22:13:33.148Z,27.70
2022-08-11T22:16:20.551Z,27.90
2022-08-11T22:19:10.487Z,28.00
2022-08-11T22:22:04.169Z,28.10
2022-08-11T22:24:55.713Z,28.00
2022-08-11T22:27:44.539Z,28.10
2022-08-11T22:30:31.846Z,28.10
2022-08-11T22:33:24.502Z,28.20
2022-08-11T22:36:14.877Z,28.30
2022-08-11T22:39:04.643Z,28.40
2022-08-11T22:41:51.763Z,28.40
2022-08-11T22:44:38.864Z,28.40
2022-08-11T22:47:38.327Z,28.50
2022-08-11T22:50:29.581Z,28.50
2022-08-11T22:53:16.959Z,28.40
2022-08-11T22:56:04.859Z,28.30
2022-08-11T22:58:52.488Z,28.30
2022-08-11T23:01:56.279Z,28.40
2022-08-11T23:04:45.428Z,28.50
2022-08-11T23:07:49.779Z,28.50
2022-08-11T23:10:38.372Z,28.60
2022-08-11T23:13:26.747Z,28.60
2022-08-11T23:16:17.534Z,28.70
2022-08-11T23:19:05.103Z,28.70
2022-08-11T23:21:53.030Z,28.90
2022-08-11T23:24:41.769Z,28.70
2022-08-11T23:27:29.574Z,28.70
2022-08-11T23:30:19.812Z,28.70
2022-08-11T23:33:10.509Z,28.80
2022-08-11T23:36:04.510Z,28.90
2022-08-11T23:38:52.964Z,28.70
2022-08-11T23:41:40.503Z,28.70
2022-08-11T23:44:28.413Z,28.70
2022-08-11T23:47:18.267Z,28.80
2022-08-11T23:50:07.526Z,29.00
2022-08-11T23:52:55.414Z,28.90
2022-08-11T23:55:42.383Z,28.90
2022-08-11T23:58:31.026Z,28.80
